createdAt,value
2023-01-25T00:00:27.504Z,102099.13
2023-01-25T00:05:29.163Z,102082.44
2023-01-25T00:10:30.807Z,102087.09
2023-01-25T00:15:32.395Z,102082.69
2023-01-25T00:20:33.902Z,102078.41
2023-01-25T00:25:35.668Z,102062.34
2023-01-25T00:30:39.359Z,102058.91
2023-01-25T00:35:40.910Z,102054.47
2023-01-25T00:40:42.442Z,102049.34
2023-01-25T00:45:43.996Z,102043.34
2023-01-25T00:50:45.555Z,102045.19
2023-01-25T00:55:53.851Z,102037.94
2023-01-25T01:00:56.572Z,102021.72
2023-01-25T01:06:03.723Z,102009.34
2023-01-25T01:11:07.701Z,102007.50
2023-01-25T01:16:12.417Z,102004.78
2023-01-25T01:21:14.788Z,102007.50
2023-01-25T01:26:21.295Z,102013.75
2023-01-25T01:31:24.174Z,102015.47
2023-01-25T01:36:37.556Z,102017.19
2023-01-25T01:41:40.053Z,102022.47
2023-01-25T01:46:51.582Z,102012.63
2023-01-25T01:52:12.076Z,102006.38
2023-01-25T01:57:20.055Z,102008.94
2023-01-25T02:02:25.031Z,102015.09
2023-01-25T02:07:35.356Z,102013.22
2023-01-25T02:12:39.510Z,102019.63
2023-01-25T02:17:42.795Z,102020.59
2023-01-25T02:23:24.330Z,102016.22
2023-01-25T02:28:31.658Z,102015.09
2023-01-25T02:33:33.301Z,102022.34
2023-01-25T02:38:57.814Z,102004.53
2023-01-25T02:44:01.972Z,101999.00
2023-01-25T02:49:06.721Z,101976.53
2023-01-25T02:54:11.147Z,101977.38
2023-01-25T02:59:13.514Z,101971.16
2023-01-25T03:04:17.710Z,101973.00
2023-01-25T03:09:19.279Z,101980.38
2023-01-25T03:14:25.751Z,101972.28
2023-01-25T03:19:28.242Z,101979.38
2023-01-25T03:24:30.086Z,101978.75
2023-01-25T03:29:33.520Z,101967.97
2023-01-25T03:34:36.192Z,101956.56
2023-01-25T03:39:38.073Z,101961.72
2023-01-25T03:44:39.710Z,101965.53
2023-01-25T03:49:41.466Z,101955.59
2023-01-25T03:54:44.273Z,101956.56
2023-01-25T03:59:48.344Z,101958.53
2023-01-25T04:04:50.045Z,101950.59
2023-01-25T04:09:56.347Z,101955.25
2023-01-25T04:15:00.684Z,101952.56
2023-01-25T04:20:02.476Z,101946.44
2023-01-25T04:25:10.932Z,101937.00
2023-01-25T04:30:18.802Z,101938.25
2023-01-25T04:35:22.761Z,101932.13
2023-01-25T04:40:24.618Z,101928.81
2023-01-25T04:45:29.170Z,101934.59
2023-01-25T04:50:32.027Z,101929.47
2023-01-25T04:55:35.229Z,101922.34
2023-01-25T05:00:37.573Z,101923.06
2023-01-25T05:05:43.178Z,101933.00
2023-01-25T05:10:46.262Z,101933.13
2023-01-25T05:16:09.037Z,101944.91
2023-01-25T05:21:31.035Z,101940.66
2023-01-25T05:26:51.243Z,101941.50
2023-01-25T05:31:52.920Z,101940.50
2023-01-25T05:36:54.675Z,101932.91
2023-01-25T05:41:59.406Z,101925.81
2023-01-25T05:47:01.940Z,101929.75
2023-01-25T05:52:03.809Z,101937.97
2023-01-25T05:57:06.315Z,101937.97
2023-01-25T06:02:09.314Z,101946.47
2023-01-25T06:07:11.095Z,101947.44
2023-01-25T06:12:12.872Z,101933.22
2023-01-25T06:17:14.479Z,101926.81
2023-01-25T06:22:37.508Z,101915.56
2023-01-25T06:27:39.050Z,101911.13
2023-01-25T06:32:40.583Z,101910.41
2023-01-25T06:37:42.296Z,101905.00
2023-01-25T06:42:43.861Z,101902.59
2023-01-25T06:47:46.749Z,101897.19
2023-01-25T06:52:55.226Z,101900.63
2023-01-25T06:58:00.556Z,101902.47
2023-01-25T07:03:02.156Z,101913.50
2023-01-25T07:08:03.871Z,101909.94
2023-01-25T07:13:05.426Z,101897.19
2023-01-25T07:18:15.959Z,101901.84
2023-01-25T07:23:19.261Z,101898.28
2023-01-25T07:28:20.865Z,101893.75
2023-01-25T07:33:22.927Z,101900.00
2023-01-25T07:38:24.498Z,101896.47
2023-01-25T07:43:26.324Z,101902.72
2023-01-25T07:48:28.255Z,101903.31
2023-01-25T07:53:29.855Z,101896.91
2023-01-25T07:58:31.393Z,101895.22
2023-01-25T08:03:35.310Z,101902.31
2023-01-25T08:08:43.865Z,101914.00
2023-01-25T08:13:49.714Z,101906.88
2023-01-25T08:18:56.649Z,101912.53
2023-01-25T08:23:59.998Z,101907.25
2023-01-25T08:29:02.316Z,101904.91
2023-01-25T08:34:09.467Z,101901.22
2023-01-25T08:39:12.393Z,101897.81
2023-01-25T08:44:13.995Z,101903.53
2023-01-25T08:49:15.950Z,101904.75
2023-01-25T08:54:17.571Z,101918.97
2023-01-25T08:59:19.173Z,101917.56
2023-01-25T09:04:20.856Z,101920.28
2023-01-25T09:09:22.618Z,101918.69
2023-01-25T09:14:24.324Z,101928.38
2023-01-25T09:19:25.943Z,101939.66
2023-01-25T09:24:27.606Z,101939.53
2023-01-25T09:29:29.190Z,101942.69
2023-01-25T09:34:30.891Z,101948.44
2023-01-25T09:39:32.700Z,101955.94
2023-01-25T09:44:52.815Z,101964.88
2023-01-25T09:50:25.198Z,101969.44
2023-01-25T09:55:29.694Z,101968.91
2023-01-25T10:00:42.238Z,101982.63
2023-01-25T10:05:53.472Z,101985.81
2023-01-25T10:11:02.227Z,101983.19
2023-01-25T10:16:14.649Z,102004.28
2023-01-25T10:21:26.843Z,102008.09
2023-01-25T10:26:33.987Z,102015.41
2023-01-25T10:31:44.374Z,102026.81
2023-01-25T10:36:50.851Z,102039.56
2023-01-25T10:42:04.960Z,102062.88
2023-01-25T10:47:35.502Z,102099.50
2023-01-25T10:52:37.954Z,102107.63
2023-01-25T10:57:44.360Z,102135.97
2023-01-25T11:02:47.905Z,102152.66
2023-01-25T11:07:49.475Z,102175.25
2023-01-25T11:13:17.307Z,102197.97
2023-01-25T11:18:23.207Z,102218.63
2023-01-25T11:23:26.224Z,102212.81
2023-01-25T11:28:27.816Z,102214.56
2023-01-25T11:33:30.642Z,102209.25
2023-01-25T11:38:32.347Z,102196.38
2023-01-25T11:43:51.208Z,102175.94
2023-01-25T11:48:57.578Z,102164.28
2023-01-25T11:54:46.665Z,102164.88
2023-01-25T12:00:14.377Z,102149.53
2023-01-25T12:05:31.184Z,102139.44
2023-01-25T12:10:56.570Z,102109.84
2023-01-25T12:16:22.433Z,102108.38
2023-01-25T12:21:42.915Z,102092.53
2023-01-25T12:27:04.956Z,102062.66
2023-01-25T12:32:19.029Z,102049.81
2023-01-25T12:37:28.834Z,102035.09
2023-01-25T12:42:42.797Z,102026.50
2023-01-25T12:47:50.947Z,102005.88
2023-01-25T12:52:58.072Z,101986.13
2023-01-25T12:58:36.932Z,101983.44
2023-01-25T13:03:57.522Z,101982.69
2023-01-25T13:09:11.839Z,101974.72
2023-01-25T13:14:16.109Z,101960.50
2023-01-25T13:19:39.009Z,101963.56
2023-01-25T13:25:02.580Z,101947.63
2023-01-25T13:30:16.213Z,101921.22
2023-01-25T13:35:37.834Z,101910.25
2023-01-25T13:40:40.057Z,101890.91
2023-01-25T13:45:42.513Z,101879.56
2023-01-25T13:50:50.453Z,101861.78
2023-01-25T13:55:56.996Z,101866.06
2023-01-25T14:01:08.285Z,101871.72
2023-01-25T14:06:41.160Z,101872.00
2023-01-25T14:11:52.253Z,101877.94
2023-01-25T14:17:04.382Z,101880.75
2023-01-25T14:22:26.287Z,101889.28
2023-01-25T14:27:28.202Z,101898.47
2023-01-25T14:32:29.844Z,101888.69
2023-01-25T14:37:31.528Z,101868.66
2023-01-25T14:42:33.247Z,101856.28
2023-01-25T14:47:35.669Z,101837.25
2023-01-25T14:52:40.420Z,101837.97
2023-01-25T14:57:42.366Z,101830.97
2023-01-25T15:02:51.541Z,101831.25
2023-01-25T15:07:54.455Z,101826.69
2023-01-25T15:13:13.633Z,101800.81
2023-01-25T15:18:47.815Z,101794.09
2023-01-25T15:23:50.351Z,101797.06
2023-01-25T15:28:54.942Z,101789.84
2023-01-25T15:33:57.931Z,101779.16
2023-01-25T15:39:00.023Z,101769.09
2023-01-25T15:44:01.586Z,101756.00
2023-01-25T15:49:05.816Z,101757.81
2023-01-25T15:54:08.218Z,101730.81
2023-01-25T15:59:17.447Z,101711.78
2023-01-25T16:04:19.057Z,101700.28
2023-01-25T16:09:23.489Z,101689.22
2023-01-25T16:14:30.743Z,101681.25
2023-01-25T16:19:32.972Z,101674.25
2023-01-25T16:24:34.713Z,101688.16
2023-01-25T16:29:36.413Z,101693.56
2023-01-25T16:34:38.821Z,101689.91
2023-01-25T16:39:40.473Z,101680.19
2023-01-25T16:44:42.035Z,101671.66
2023-01-25T16:49:43.729Z,101674.63
2023-01-25T16:54:45.329Z,101656.59
2023-01-25T16:59:46.918Z,101646.53
2023-01-25T17:04:48.480Z,101645.53
2023-01-25T17:09:50.008Z,101627.06
2023-01-25T17:14:51.579Z,101631.84
2023-01-25T17:19:53.287Z,101641.22
2023-01-25T17:24:55.850Z,101632.41
2023-01-25T17:29:57.454Z,101608.25
2023-01-25T17:35:01.453Z,101610.22
2023-01-25T17:40:03.670Z,101589.50
2023-01-25T17:45:05.792Z,101590.34
2023-01-25T17:50:08.511Z,101581.53
2023-01-25T17:55:10.738Z,101587.81
2023-01-25T18:00:13.091Z,101573.59
2023-01-25T18:05:15.855Z,101573.31
2023-01-25T18:10:17.656Z,101558.25
2023-01-25T18:15:22.351Z,101554.84
2023-01-25T18:20:23.945Z,101547.88
2023-01-25T18:25:35.019Z,101546.88
2023-01-25T18:30:42.997Z,101542.06
2023-01-25T18:35:47.837Z,101531.13
2023-01-25T18:40:49.445Z,101522.03
2023-01-25T18:45:56.034Z,101526.72
2023-01-25T18:51:19.845Z,101520.34
2023-01-25T18:56:22.123Z,101521.31
2023-01-25T19:01:24.783Z,101515.78
2023-01-25T19:06:26.454Z,101516.94
2023-01-25T19:11:28.099Z,101511.53
2023-01-25T19:16:30.913Z,101512.38
2023-01-25T19:21:33.734Z,101514.06
2023-01-25T19:26:35.363Z,101510.94
2023-01-25T19:31:37.426Z,101515.63
2023-01-25T19:36:45.964Z,101518.88
2023-01-25T19:41:47.538Z,101517.88
2023-01-25T19:46:49.298Z,101512.59
2023-01-25T19:51:55.090Z,101512.44
2023-01-25T19:56:58.604Z,101509.88
2023-01-25T20:02:00.475Z,101505.63
2023-01-25T20:07:02.171Z,101492.25
2023-01-25T20:12:09.247Z,101482.47
2023-01-25T20:17:10.882Z,101476.25
2023-01-25T20:22:12.600Z,101469.41
2023-01-25T20:27:14.206Z,101466.72
2023-01-25T20:32:31.546Z,101460.19
2023-01-25T20:37:34.191Z,101438.50
2023-01-25T20:42:36.626Z,101433.81
2023-01-25T20:47:38.242Z,101426.69
2023-01-25T20:52:39.949Z,101415.91
2023-01-25T20:57:41.720Z,101410.50
2023-01-25T21:02:43.342Z,101403.97
2023-01-25T21:07:44.991Z,101389.50
2023-01-25T21:12:46.578Z,101380.72
2023-01-25T21:17:52.661Z,101382.00
2023-01-25T21:22:54.339Z,101379.00
2023-01-25T21:27:55.957Z,101383.13
2023-01-25T21:32:57.647Z,101386.25
2023-01-25T21:37:59.323Z,101381.56
2023-01-25T21:43:00.884Z,101387.25
2023-01-25T21:48:02.409Z,101380.13
2023-01-25T21:53:03.963Z,101376.84
2023-01-25T21:58:05.553Z,101376.28
2023-01-25T22:03:07.130Z,101367.34
2023-01-25T22:08:08.710Z,101364.94
2023-01-25T22:13:14.644Z,101358.97
2023-01-25T22:18:16.214Z,101360.38
2023-01-25T22:23:17.778Z,101358.81
2023-01-25T22:28:19.547Z,101342.19
2023-01-25T22:33:21.582Z,101338.06
2023-01-25T22:38:23.207Z,101306.00
2023-01-25T22:43:24.844Z,101284.00
2023-01-25T22:48:26.955Z,101264.69
2023-01-25T22:53:29.251Z,101246.41
2023-01-25T22:58:31.040Z,101214.66
2023-01-25T23:03:32.971Z,101187.84
2023-01-25T23:08:36.204Z,101177.34
2023-01-25T23:13:39.823Z,101159.47
2023-01-25T23:18:50.269Z,101137.66
2023-01-25T23:23:51.915Z,101133.38
2023-01-25T23:28:55.569Z,101113.41
2023-01-25T23:33:59.717Z,101111.09
2023-01-25T23:39:01.568Z,101086.16
2023-01-25T23:44:03.115Z,101070.56
2023-01-25T23:49:04.836Z,101057.53
2023-01-25T23:54:06.389Z,101039.50
2023-01-25T23:59:10.343Z,101049.13
